Time;durP1;ratioP1;P1;durP2;ratioP2;P2;SDS_P1;SDS_P2;PMS_P1;PMS_P2;Temp;Humidity;BMP_temperature;BMP_pressure;BME280_temperature;BME280_humidity;BME280_pressure;Samples;Min_cycle;Max_cycle;Signal;HPM_P1;HPM_P2
2022/08/13 00:01:38;;;;;;;5.53;4.97;;;21.10;1.00;;;;;;5088554;28;20456;-55
2022/08/13 00:04:05;;;;;;;4.33;3.93;;;21.00;1.00;;;;;;5087693;28;20444;-54
2022/08/13 00:09:04;;;;;;;5.47;3.77;;;20.80;1.00;;;;;;5088403;28;20440;-55
2022/08/13 00:14:22;;;;;;;4.10;3.80;;;20.70;1.00;;;;;;5090468;28;21082;-55
2022/08/13 00:16:48;;;;;;;3.90;3.60;;;20.60;1.00;;;;;;5090549;28;20444;-54
2022/08/13 00:19:13;;;;;;;4.73;4.03;;;20.60;1.00;;;;;;5091138;28;20535;-54
2022/08/13 00:21:39;;;;;;;4.47;3.73;;;20.50;1.00;;;;;;5089821;28;21056;-54
2022/08/13 00:24:05;;;;;;;5.43;4.33;;;20.60;1.00;;;;;;5087761;28;20179;-55
2022/08/13 00:26:33;;;;;;;6.23;4.20;;;20.60;1.00;;;;;;5089869;28;20202;-55
2022/08/13 00:29:00;;;;;;;5.17;4.40;;;20.50;1.00;;;;;;5070775;28;20966;-55
2022/08/13 00:31:26;;;;;;;4.50;4.10;;;20.50;1.00;;;;;;5090474;28;20784;-56
2022/08/13 00:33:53;;;;;;;4.00;3.70;;;20.50;1.00;;;;;;5088549;28;20463;-54
2022/08/13 00:36:21;;;;;;;5.47;4.30;;;20.40;1.00;;;;;;5091024;28;20436;-56
2022/08/13 00:38:48;;;;;;;4.43;4.07;;;20.40;1.00;;;;;;5089730;28;20540;-55
2022/08/13 00:41:37;;;;;;;3.67;3.33;;;20.50;1.00;;;;;;5091060;28;20433;-56
2022/08/13 00:44:01;;;;;;;4.43;4.13;;;20.40;1.00;;;;;;5088936;28;20459;-55
2022/08/13 00:46:27;;;;;;;4.07;3.77;;;20.40;1.00;;;;;;5090700;28;20441;-55
2022/08/13 00:48:54;;;;;;;6.67;4.63;;;20.30;1.00;;;;;;5086827;28;20980;-54
2022/08/13 00:51:25;;;;;;;4.17;3.80;;;20.30;1.00;;;;;;5089385;28;20183;-56
2022/08/13 00:53:51;;;;;;;4.50;4.17;;;20.30;1.00;;;;;;5089990;28;20547;-54
2022/08/13 00:56:17;;;;;;;4.30;3.90;;;20.20;1.00;;;;;;5089668;28;20520;-55
2022/08/13 00:58:43;;;;;;;4.40;3.77;;;20.20;1.00;;;;;;5089155;28;20683;-57
2022/08/13 01:01:11;;;;;;;4.03;3.73;;;20.20;1.00;;;;;;5089638;28;21091;-54
2022/08/13 01:03:38;;;;;;;4.73;4.33;;;20.20;1.00;;;;;;5090376;28;20449;-55
2022/08/13 01:06:08;;;;;;;4.40;4.00;;;20.20;1.00;;;;;;5089609;28;20479;-54
2022/08/13 01:08:40;;;;;;;7.03;4.80;;;20.20;1.00;;;;;;5088248;28;20453;-55
2022/08/13 01:11:09;;;;;;;4.10;3.70;;;20.00;1.00;;;;;;5087577;28;20440;-55
2022/08/13 01:13:37;;;;;;;4.60;4.20;;;20.00;1.00;;;;;;5089920;28;21007;-53
2022/08/13 01:16:13;;;;;;;5.80;4.27;;;20.00;1.00;;;;;;5086745;28;20443;-56
2022/08/13 01:18:42;;;;;;;6.27;4.57;;;20.00;1.00;;;;;;5089959;28;20435;-54
2022/08/13 01:21:15;;;;;;;4.90;4.27;;;20.00;1.00;;;;;;5090235;28;20497;-55
2022/08/13 01:23:45;;;;;;;4.63;4.20;;;20.00;1.00;;;;;;5090542;28;20443;-56
2022/08/13 01:26:15;;;;;;;4.83;4.43;;;20.00;1.00;;;;;;5089184;28;20464;-54
2022/08/13 01:28:42;;;;;;;4.53;3.90;;;19.90;1.00;;;;;;5088105;28;20440;-55
2022/08/13 01:31:07;;;;;;;4.37;4.07;;;19.80;1.00;;;;;;5088901;28;20946;-56
2022/08/13 01:33:38;;;;;;;4.57;4.20;;;19.80;1.00;;;;;;5089138;28;20460;-55
2022/08/13 01:36:08;;;;;;;5.23;4.13;;;19.80;1.00;;;;;;5087816;28;20181;-56
2022/08/13 01:38:36;;;;;;;4.80;4.07;;;19.70;1.00;;;;;;5087828;28;20464;-54
2022/08/13 01:41:08;;;;;;;4.13;3.83;;;19.70;1.00;;;;;;5089143;28;22586;-55
2022/08/13 01:43:37;;;;;;;4.87;4.50;;;19.70;1.00;;;;;;5089774;28;20952;-57
2022/08/13 01:46:09;;;;;;;5.10;4.70;;;19.60;1.00;;;;;;5089174;28;20797;-55
2022/08/13 01:51:23;;;;;;;4.53;4.10;;;19.60;1.00;;;;;;5086464;28;20852;-56
2022/08/13 01:53:52;;;;;;;4.67;4.30;;;19.50;1.00;;;;;;5090011;28;20467;-55
2022/08/13 01:56:21;;;;;;;6.47;4.73;;;19.40;1.00;;;;;;5088347;28;20466;-54
2022/08/13 01:58:52;;;;;;;5.07;4.60;;;19.40;1.00;;;;;;5087921;28;20444;-53
2022/08/13 02:01:18;;;;;;;5.70;4.60;;;19.40;1.00;;;;;;5086120;28;20436;-54
2022/08/13 02:03:49;;;;;;;5.27;4.53;;;19.40;1.00;;;;;;5090372;28;20533;-54
2022/08/13 02:06:20;;;;;;;5.47;5.07;;;19.40;1.00;;;;;;5090664;28;21004;-56
2022/08/13 02:08:50;;;;;;;5.27;4.77;;;19.30;1.00;;;;;;5093860;28;20439;-56
2022/08/13 02:11:16;;;;;;;5.60;5.10;;;19.20;1.00;;;;;;5093075;28;20620;-56
2022/08/13 02:13:42;;;;;;;5.17;4.77;;;19.20;1.00;;;;;;5093695;28;20601;-54
2022/08/13 02:16:08;;;;;;;8.07;4.73;;;19.20;1.00;;;;;;5093054;28;21042;-55
2022/08/13 02:18:34;;;;;;;5.40;5.00;;;19.30;1.00;;;;;;5093315;28;20539;-55
2022/08/13 02:21:06;;;;;;;6.30;4.60;;;19.30;1.00;;;;;;5092265;28;20528;-54
2022/08/13 02:23:33;;;;;;;4.40;4.10;;;19.30;1.00;;;;;;5091854;28;20195;-55
2022/08/13 02:26:00;;;;;;;4.40;4.03;;;19.30;1.00;;;;;;5092923;28;20497;-54
2022/08/13 02:28:28;;;;;;;4.97;4.57;;;19.30;1.00;;;;;;5092799;28;20448;-55
2022/08/13 02:30:56;;;;;;;5.00;4.60;;;19.30;1.00;;;;;;5092566;28;20444;-56
2022/08/13 02:33:22;;;;;;;4.60;4.30;;;19.20;1.00;;;;;;5093319;28;20527;-53
2022/08/13 02:35:48;;;;;;;5.07;4.60;;;19.10;1.00;;;;;;5093752;28;20854;-56
2022/08/13 02:38:16;;;;;;;6.20;4.30;;;19.10;1.00;;;;;;5093052;28;20488;-56
2022/08/13 02:43:28;;;;;;;7.50;4.63;;;19.00;1.00;;;;;;5092193;28;20427;-55
2022/08/13 02:45:54;;;;;;;6.20;4.57;;;19.00;1.00;;;;;;5092044;28;20440;-54
2022/08/13 02:48:21;;;;;;;4.63;4.23;;;19.00;1.00;;;;;;5092552;28;20508;-56
2022/08/13 02:50:48;;;;;;;5.10;4.60;;;19.00;1.00;;;;;;5092853;28;20428;-54
2022/08/13 02:53:14;;;;;;;5.23;4.80;;;19.00;1.00;;;;;;5093312;28;20558;-56
2022/08/13 02:55:41;;;;;;;4.67;4.37;;;18.90;1.00;;;;;;5093385;28;20472;-57
2022/08/13 02:58:08;;;;;;;5.47;5.07;;;18.80;1.00;;;;;;5092188;28;20178;-56
2022/08/13 03:00:35;;;;;;;5.53;5.03;;;18.80;1.00;;;;;;5092405;28;20471;-55
2022/08/13 03:03:00;;;;;;;5.70;4.43;;;18.80;1.00;;;;;;5093315;28;20435;-55
2022/08/13 03:05:30;;;;;;;5.97;5.30;;;18.70;1.00;;;;;;5090606;28;20837;-54
2022/08/13 03:07:57;;;;;;;5.20;4.80;;;18.80;1.00;;;;;;5092370;28;20186;-55
2022/08/13 03:10:25;;;;;;;4.67;4.00;;;18.80;1.00;;;;;;5092031;28;20502;-53
2022/08/13 03:12:58;;;;;;;4.70;4.30;;;18.80;1.00;;;;;;5092727;28;20445;-56
2022/08/13 03:15:26;;;;;;;5.30;4.93;;;18.70;1.00;;;;;;5088599;28;20472;-57
2022/08/13 03:17:52;;;;;;;5.80;5.20;;;18.80;1.00;;;;;;5091571;28;20432;-56
2022/08/13 03:20:17;;;;;;;5.93;5.07;;;18.90;1.00;;;;;;5091680;28;20463;-56
2022/08/13 03:22:48;;;;;;;5.57;5.00;;;18.90;1.00;;;;;;5092342;28;20205;-53
2022/08/13 03:25:15;;;;;;;6.23;4.70;;;18.90;1.00;;;;;;5066912;28;20660;-53
2022/08/13 03:27:41;;;;;;;5.37;4.30;;;18.80;1.00;;;;;;5088169;28;20452;-56
2022/08/13 03:30:07;;;;;;;7.23;5.40;;;18.70;1.00;;;;;;5090382;28;20452;-56
2022/08/13 03:32:41;;;;;;;5.30;4.90;;;18.70;1.00;;;;;;5088680;28;20198;-55
2022/08/13 03:35:15;;;;;;;4.43;4.13;;;18.60;1.00;;;;;;5092349;28;20511;-57
2022/08/13 03:37:45;;;;;;;5.00;4.60;;;18.70;1.00;;;;;;5087160;28;20518;-57
2022/08/13 03:40:12;;;;;;;5.17;4.77;;;18.70;1.00;;;;;;5091986;28;20821;-54
2022/08/13 03:42:40;;;;;;;5.77;5.27;;;18.60;1.00;;;;;;5091545;28;20937;-54
2022/08/13 03:45:07;;;;;;;10.13;5.20;;;18.60;1.00;;;;;;5090975;28;20437;-54
2022/08/13 03:47:33;;;;;;;5.23;4.63;;;18.60;1.00;;;;;;5087866;28;20455;-54
2022/08/13 03:50:00;;;;;;;5.30;4.83;;;18.60;1.00;;;;;;5089001;28;20448;-56
2022/08/13 03:52:27;;;;;;;5.93;4.93;;;18.70;1.00;;;;;;5091928;28;20429;-53
2022/08/13 03:54:53;;;;;;;5.20;4.80;;;18.70;1.00;;;;;;5091039;28;20480;-55
2022/08/13 03:57:19;;;;;;;5.73;5.23;;;18.70;1.00;;;;;;5089878;28;20456;-55
2022/08/13 03:59:47;;;;;;;6.43;4.80;;;18.60;1.00;;;;;;5091178;28;20278;-54
2022/08/13 04:02:15;;;;;;;5.20;4.80;;;18.60;1.00;;;;;;5090980;28;20436;-55
2022/08/13 04:04:42;;;;;;;5.27;4.87;;;18.70;1.00;;;;;;5090632;28;20548;-57
2022/08/13 04:07:09;;;;;;;5.20;4.80;;;18.60;1.00;;;;;;5087211;28;20483;-56
2022/08/13 04:09:35;;;;;;;5.47;4.10;;;18.60;1.00;;;;;;5090637;28;20441;-55
2022/08/13 04:12:00;;;;;;;5.30;4.93;;;18.60;1.00;;;;;;5091775;28;20437;-55
2022/08/13 04:14:26;;;;;;;5.37;4.87;;;18.70;1.00;;;;;;5090680;28;20211;-54
2022/08/13 04:16:52;;;;;;;5.00;4.60;;;18.70;1.00;;;;;;5091127;28;20282;-55
2022/08/13 04:19:17;;;;;;;7.13;5.53;;;18.80;1.00;;;;;;5091029;28;20194;-54
2022/08/13 04:21:43;;;;;;;5.43;5.03;;;18.90;1.00;;;;;;5087448;28;20174;-55
2022/08/13 04:24:11;;;;;;;5.60;5.07;;;19.00;1.00;;;;;;5091670;28;20232;-54
2022/08/13 04:26:37;;;;;;;5.67;5.00;;;19.10;1.00;;;;;;5088222;28;20624;-56
2022/08/13 04:29:09;;;;;;;4.93;4.43;;;19.10;1.00;;;;;;5089999;28;20506;-54
2022/08/13 04:31:35;;;;;;;4.90;4.60;;;19.10;1.00;;;;;;5089807;28;20811;-56
2022/08/13 04:34:01;;;;;;;5.23;4.73;;;19.10;1.00;;;;;;5090179;28;20471;-55
2022/08/13 04:36:27;;;;;;;5.60;5.10;;;19.00;1.00;;;;;;5090586;28;20190;-53
2022/08/13 04:38:52;;;;;;;5.00;4.63;;;19.10;1.00;;;;;;5089457;28;20252;-56
2022/08/13 04:41:18;;;;;;;6.07;5.07;;;19.10;1.00;;;;;;5091174;28;20190;-54
2022/08/13 04:43:44;;;;;;;5.17;4.63;;;19.10;1.00;;;;;;5089474;28;20190;-54
2022/08/13 04:46:10;;;;;;;5.60;5.20;;;19.10;1.00;;;;;;5090825;28;20248;-57
2022/08/13 04:48:35;;;;;;;5.27;4.77;;;18.90;1.00;;;;;;5089301;28;20182;-54
2022/08/13 04:51:02;;;;;;;5.40;5.00;;;19.20;1.00;;;;;;5088902;28;20453;-54
2022/08/13 04:53:31;;;;;;;5.80;5.30;;;19.20;1.00;;;;;;5088649;28;20218;-56
2022/08/13 04:55:58;;;;;;;5.03;4.73;;;19.30;1.00;;;;;;5072502;28;20512;-54
2022/08/13 04:58:29;;;;;;;5.73;4.90;;;19.30;1.00;;;;;;5089587;28;20441;-55
2022/08/13 05:00:56;;;;;;;6.10;4.93;;;19.40;1.00;;;;;;5090230;28;20544;-55
2022/08/13 05:03:22;;;;;;;5.53;5.03;;;19.40;1.00;;;;;;5087718;28;20938;-54
2022/08/13 05:05:50;;;;;;;7.73;5.27;;;19.40;1.00;;;;;;5090077;28;20450;-56
2022/08/13 05:08:16;;;;;;;5.80;5.37;;;19.50;1.00;;;;;;5088837;28;20479;-54
2022/08/13 05:10:43;;;;;;;6.60;6.00;;;19.50;1.00;;;;;;5089674;28;20444;-54
2022/08/13 05:13:43;;;;;;;6.10;5.50;;;19.60;1.00;;;;;;5071615;28;20536;-56
2022/08/13 05:16:13;;;;;;;6.20;5.80;;;19.60;1.00;;;;;;5045017;28;20989;-57
2022/08/13 05:18:44;;;;;;;5.60;5.10;;;19.70;1.00;;;;;;5089711;28;20593;-55
2022/08/13 05:21:11;;;;;;;6.80;6.30;;;19.80;1.00;;;;;;5089539;28;20459;-54
2022/08/13 05:23:38;;;;;;;6.50;5.10;;;19.90;1.00;;;;;;5087041;28;20460;-55
2022/08/13 05:26:07;;;;;;;6.57;5.33;;;20.00;1.00;;;;;;5087039;28;20937;-54
2022/08/13 05:28:34;;;;;;;6.33;5.53;;;20.10;1.00;;;;;;5071103;28;20433;-55
2022/08/13 05:31:00;;;;;;;5.77;5.37;;;20.10;1.00;;;;;;5089525;28;20448;-56
2022/08/13 05:33:28;;;;;;;6.33;5.73;;;20.10;1.00;;;;;;5089438;28;20444;-56
2022/08/13 05:35:57;;;;;;;5.90;5.40;;;20.20;1.00;;;;;;5089161;28;20976;-56
2022/08/13 05:38:24;;;;;;;6.83;6.27;;;20.20;1.00;;;;;;5088975;28;20465;-56
2022/08/13 05:40:56;;;;;;;5.90;5.40;;;20.30;1.00;;;;;;5089573;28;20633;-55
2022/08/13 05:43:24;;;;;;;7.23;6.20;;;20.30;1.00;;;;;;5089865;28;20437;-55
2022/08/13 05:45:59;;;;;;;7.10;6.00;;;20.30;1.00;;;;;;5089284;28;20455;-56
2022/08/13 05:48:31;;;;;;;8.03;5.93;;;20.50;1.00;;;;;;5088886;28;20486;-55
2022/08/13 05:51:00;;;;;;;6.80;6.20;;;20.50;1.00;;;;;;5088213;28;20436;-55
2022/08/13 05:53:26;;;;;;;6.87;6.20;;;20.40;1.00;;;;;;5072150;28;20547;-54
2022/08/13 05:55:53;;;;;;;7.70;5.90;;;20.40;1.00;;;;;;5089680;28;20447;-57
2022/08/13 05:58:21;;;;;;;7.03;6.43;;;20.50;1.00;;;;;;5084422;28;20437;-56
2022/08/13 06:03:32;;;;;;;6.30;5.80;;;20.40;1.00;;;;;;5090136;28;20440;-55
2022/08/13 06:06:10;;;;;;;7.00;6.30;;;20.40;1.00;;;;;;5089595;28;20444;-54
2022/08/13 06:08:42;;;;;;;6.87;6.23;;;20.50;1.00;;;;;;5089664;28;20646;-56
2022/08/13 06:11:08;;;;;;;7.10;6.40;;;20.70;1.00;;;;;;5089258;28;20966;-55
2022/08/13 06:13:38;;;;;;;6.77;6.17;;;20.70;1.00;;;;;;5089182;28;20493;-55
2022/08/13 06:16:08;;;;;;;7.70;7.00;;;20.90;1.00;;;;;;5088727;28;20804;-55
2022/08/13 06:18:36;;;;;;;7.50;6.40;;;21.10;1.00;;;;;;5089097;28;20448;-55
2022/08/13 06:21:11;;;;;;;7.17;6.10;;;21.20;1.00;;;;;;5087383;28;20974;-56
2022/08/13 06:23:37;;;;;;;6.13;5.73;;;21.20;1.00;;;;;;5088615;28;20435;-55
2022/08/13 06:26:07;;;;;;;6.80;6.17;;;21.10;1.00;;;;;;5088445;28;20440;-55
2022/08/13 06:28:35;;;;;;;6.87;6.37;;;21.00;1.00;;;;;;5089631;28;20444;-55
2022/08/13 06:31:06;;;;;;;6.80;6.20;;;20.90;1.00;;;;;;5088461;28;20524;-55
2022/08/13 06:33:34;;;;;;;7.07;5.83;;;21.00;1.00;;;;;;5089292;28;20442;-55
2022/08/13 06:36:07;;;;;;;6.60;5.90;;;21.10;1.00;;;;;;5089534;28;20444;-54
2022/08/13 06:38:42;;;;;;;7.07;6.53;;;21.00;1.00;;;;;;5088223;28;20479;-55
2022/08/13 06:41:10;;;;;;;6.33;5.90;;;21.10;1.00;;;;;;5089319;28;20553;-54
2022/08/13 06:43:41;;;;;;;7.23;6.63;;;21.20;1.00;;;;;;5088077;28;20837;-56
2022/08/13 06:46:11;;;;;;;6.70;6.10;;;21.20;1.00;;;;;;5088875;28;20456;-56
2022/08/13 06:48:41;;;;;;;7.07;6.37;;;21.20;1.00;;;;;;5087938;28;20444;-55
2022/08/13 06:51:10;;;;;;;8.33;7.20;;;21.20;1.00;;;;;;5091531;28;20997;-56
2022/08/13 06:53:38;;;;;;;10.50;7.23;;;21.30;1.00;;;;;;5092227;28;20494;-57
2022/08/13 06:56:13;;;;;;;10.70;6.93;;;21.30;1.00;;;;;;5092950;28;20527;-56
2022/08/13 06:58:42;;;;;;;6.53;6.03;;;21.40;1.00;;;;;;5092285;28;20957;-56
2022/08/13 07:01:10;;;;;;;7.30;6.60;;;21.60;1.00;;;;;;5092644;28;20515;-55
2022/08/13 07:03:40;;;;;;;8.10;7.30;;;21.70;1.00;;;;;;5090801;28;20811;-56
2022/08/13 07:06:17;;;;;;;8.47;6.70;;;22.00;1.00;;;;;;5092061;28;20444;-56
2022/08/13 07:08:43;;;;;;;12.07;6.90;;;22.10;1.00;;;;;;5091990;28;20778;-57
2022/08/13 07:11:22;;;;;;;8.10;5.70;;;22.20;1.00;;;;;;5092211;28;20472;-57
2022/08/13 07:13:52;;;;;;;7.17;6.50;;;22.30;1.00;;;;;;5090311;28;20472;-56
2022/08/13 07:16:21;;;;;;;7.67;6.23;;;22.30;1.00;;;;;;5091990;28;20487;-56
2022/08/13 07:18:49;;;;;;;7.63;6.80;;;22.30;1.00;;;;;;5092878;28;20433;-56
2022/08/13 07:21:19;;;;;;;7.30;6.53;;;22.30;1.00;;;;;;5092302;28;20448;-57
2022/08/13 07:23:46;;;;;;;7.30;6.60;;;22.30;1.00;;;;;;5092670;28;20945;-57
2022/08/13 07:26:16;;;;;;;7.17;6.57;;;22.20;1.00;;;;;;5091626;28;20451;-57
2022/08/13 07:28:44;;;;;;;6.80;6.30;;;22.20;1.00;;;;;;5091343;28;20448;-56
2022/08/13 07:31:10;;;;;;;7.43;6.50;;;22.20;1.00;;;;;;5092336;28;20528;-55
2022/08/13 07:33:39;;;;;;;6.90;6.30;;;22.20;1.00;;;;;;5090711;28;20448;-57
2022/08/13 07:36:29;;;;;;;7.20;6.10;;;22.10;1.00;;;;;;5091996;28;20428;-57
2022/08/13 07:39:00;;;;;;;6.53;5.93;;;22.10;1.00;;;;;;5078591;28;20598;-57
2022/08/13 07:41:27;;;;;;;8.47;7.57;;;22.10;1.00;;;;;;5091112;28;20528;-55
2022/08/13 07:43:53;;;;;;;8.30;6.67;;;22.20;1.00;;;;;;5091218;28;21159;-56
2022/08/13 07:46:19;;;;;;;6.67;6.10;;;22.20;1.00;;;;;;5092179;28;20937;-56
2022/08/13 07:48:50;;;;;;;7.57;6.77;;;22.20;1.00;;;;;;5090814;28;20186;-56
2022/08/13 07:51:21;;;;;;;8.40;6.90;;;22.30;1.00;;;;;;5091203;28;20195;-56
2022/08/13 07:53:52;;;;;;;7.67;7.00;;;22.50;1.00;;;;;;5073102;28;20456;-56
2022/08/13 07:56:21;;;;;;;13.03;7.27;;;22.60;1.00;;;;;;5090971;28;20437;-57
2022/08/13 07:58:47;;;;;;;9.00;6.90;;;22.60;1.00;;;;;;5090522;28;20523;-57
2022/08/13 08:01:13;;;;;;;7.23;6.53;;;22.70;1.00;;;;;;5090728;28;20891;-57
2022/08/13 08:03:45;;;;;;;8.20;6.20;;;22.70;1.00;;;;;;5090399;28;20259;-55
2022/08/13 08:06:14;;;;;;;7.10;5.93;;;23.00;1.00;;;;;;5090707;28;20451;-55
2022/08/13 08:08:42;;;;;;;8.03;6.60;;;23.00;1.00;;;;;;5090749;28;20441;-56
2022/08/13 08:11:09;;;;;;;9.10;7.90;;;23.10;1.00;;;;;;5091018;28;20885;-57
2022/08/13 08:13:35;;;;;;;7.00;6.40;;;23.20;1.00;;;;;;5091512;28;21005;-56
2022/08/13 08:16:03;;;;;;;8.33;7.50;;;23.10;1.00;;;;;;5089909;28;20479;-57
2022/08/13 08:18:32;;;;;;;9.30;6.90;;;23.10;1.00;;;;;;5090512;28;20444;-56
2022/08/13 08:21:09;;;;;;;8.70;7.00;;;23.20;1.00;;;;;;5090980;28;20441;-56
2022/08/13 08:23:35;;;;;;;7.57;6.50;;;23.30;1.00;;;;;;5090443;28;20436;-55
2022/08/13 08:26:10;;;;;;;7.97;6.70;;;23.40;1.00;;;;;;5090955;28;20767;-56
2022/08/13 08:28:35;;;;;;;8.73;6.60;;;23.40;1.00;;;;;;5089850;28;20448;-56
2022/08/13 08:31:06;;;;;;;7.27;6.53;;;23.50;1.00;;;;;;5090472;28;20774;-56
2022/08/13 08:33:34;;;;;;;7.00;6.30;;;23.50;1.00;;;;;;5090412;28;20183;-55
2022/08/13 08:36:09;;;;;;;6.87;6.37;;;23.50;1.00;;;;;;5090477;28;20456;-56
2022/08/13 08:44:20;;;;;;;7.37;6.70;;;23.30;1.00;;;;;;5090444;28;20434;-56
2022/08/13 08:46:47;;;;;;;9.70;7.50;;;23.20;1.00;;;;;;5089355;28;20472;-56
2022/08/13 08:49:15;;;;;;;7.87;7.07;;;23.10;1.00;;;;;;5089694;28;20436;-56
2022/08/13 08:51:41;;;;;;;6.83;5.73;;;23.00;1.00;;;;;;5089488;28;20432;-56
2022/08/13 08:54:08;;;;;;;11.57;6.70;;;22.90;1.00;;;;;;5088454;28;20459;-56
2022/08/13 08:56:34;;;;;;;9.07;6.60;;;22.80;1.00;;;;;;5089821;28;20866;-56
2022/08/13 08:59:01;;;;;;;6.50;5.90;;;22.60;1.00;;;;;;5089935;28;20429;-55
2022/08/13 09:01:27;;;;;;;6.70;6.00;;;22.70;1.00;;;;;;5090078;28;20490;-57
2022/08/13 09:03:56;;;;;;;6.43;5.83;;;22.70;1.00;;;;;;5088349;28;20859;-56
2022/08/13 09:06:23;;;;;;;6.77;6.10;;;22.70;1.00;;;;;;5088106;28;20441;-55
2022/08/13 09:08:52;;;;;;;7.73;6.43;;;22.70;1.00;;;;;;5086342;28;20443;-55
2022/08/13 09:11:19;;;;;;;7.03;6.33;;;23.00;1.00;;;;;;5087040;28;20451;-56
2022/08/13 09:13:49;;;;;;;7.27;6.67;;;23.40;1.00;;;;;;5089534;28;21210;-56
2022/08/13 09:16:16;;;;;;;7.83;7.17;;;23.60;1.00;;;;;;5055321;28;20445;-55
2022/08/13 09:18:43;;;;;;;7.97;7.27;;;23.80;1.00;;;;;;5090328;28;20440;-56
2022/08/13 09:21:08;;;;;;;9.43;7.00;;;23.80;1.00;;;;;;5086510;28;22160;-56
2022/08/13 09:23:42;;;;;;;6.90;6.30;;;23.70;1.00;;;;;;5088515;28;20480;-56
2022/08/13 09:26:10;;;;;;;7.57;6.80;;;23.80;1.00;;;;;;5090610;28;20184;-55
2022/08/13 09:28:37;;;;;;;8.70;7.20;;;23.60;1.00;;;;;;5085978;28;20495;-56
2022/08/13 09:31:07;;;;;;;8.10;7.40;;;23.80;1.00;;;;;;5086383;28;20444;-55
2022/08/13 09:33:38;;;;;;;9.37;8.20;;;23.90;1.00;;;;;;5088402;28;20443;-56
2022/08/13 09:36:09;;;;;;;8.50;7.80;;;23.80;1.00;;;;;;5087734;28;20418;-55
2022/08/13 09:38:36;;;;;;;7.73;7.23;;;24.50;1.00;;;;;;5088859;28;20818;-55
2022/08/13 09:41:08;;;;;;;10.93;7.20;;;24.70;1.00;;;;;;5087995;28;20917;-55
2022/08/13 09:43:40;;;;;;;8.20;7.50;;;24.70;1.00;;;;;;5089778;28;20515;-56
2022/08/13 09:46:10;;;;;;;8.50;7.70;;;25.00;1.00;;;;;;5069130;28;20492;-56
2022/08/13 09:48:37;;;;;;;14.00;8.60;;;25.20;1.00;;;;;;5088624;28;20440;-57
2022/08/13 09:51:09;;;;;;;8.20;7.37;;;25.50;1.00;;;;;;5087532;28;20423;-55
2022/08/13 09:53:34;;;;;;;13.40;8.60;;;25.90;1.00;;;;;;5088580;28;20450;-56
2022/08/13 09:56:00;;;;;;;9.43;8.53;;;26.10;1.00;;;;;;5088631;28;20465;-56
2022/08/13 09:58:25;;;;;;;8.50;7.80;;;26.10;1.00;;;;;;5088117;28;20282;-56
2022/08/13 10:00:52;;;;;;;8.77;7.97;;;26.00;1.00;;;;;;5070302;28;20274;-56
2022/08/13 10:03:18;;;;;;;10.57;8.67;;;26.10;1.00;;;;;;5089739;28;20187;-56
2022/08/13 10:05:45;;;;;;;11.70;7.80;;;26.20;1.00;;;;;;5087787;28;20548;-56
2022/08/13 10:08:18;;;;;;;9.20;8.40;;;26.30;1.00;;;;;;5088027;28;20451;-57
2022/08/13 10:10:46;;;;;;;9.17;8.10;;;26.50;1.00;;;;;;5088657;28;20433;-57
2022/08/13 10:13:12;;;;;;;11.37;9.93;;;26.30;1.00;;;;;;5089227;28;20441;-59
2022/08/13 10:15:39;;;;;;;9.60;8.60;;;26.20;1.00;;;;;;5089232;28;20514;-56
2022/08/13 10:18:05;;;;;;;9.23;8.07;;;26.30;1.00;;;;;;5089111;28;20445;-55
2022/08/13 10:20:33;;;;;;;9.53;8.60;;;26.50;1.00;;;;;;5089078;28;20436;-56
2022/08/13 10:23:00;;;;;;;10.07;8.90;;;26.60;1.00;;;;;;5087721;28;20463;-56
2022/08/13 10:25:27;;;;;;;9.57;8.67;;;26.60;1.00;;;;;;5092329;28;20479;-57
2022/08/13 10:27:54;;;;;;;9.10;8.40;;;26.70;1.00;;;;;;5092709;28;20468;-57
2022/08/13 10:30:24;;;;;;;9.47;8.77;;;26.70;1.00;;;;;;5075878;28;20460;-57
2022/08/13 10:32:50;;;;;;;9.07;8.23;;;26.80;1.00;;;;;;5074753;28;20640;-55
2022/08/13 10:35:19;;;;;;;9.60;8.70;;;26.70;1.00;;;;;;5092451;28;20468;-56
2022/08/13 10:37:47;;;;;;;8.67;8.07;;;26.70;1.00;;;;;;5092929;28;20457;-57
2022/08/13 10:40:14;;;;;;;9.93;9.00;;;26.70;1.00;;;;;;5092892;28;20437;-56
2022/08/13 10:42:44;;;;;;;9.00;8.30;;;26.80;1.00;;;;;;5093162;28;20444;-57
2022/08/13 10:45:10;;;;;;;9.13;8.20;;;26.90;1.00;;;;;;5092444;28;20810;-56
2022/08/13 10:47:47;;;;;;;11.20;8.57;;;26.80;1.00;;;;;;5092429;28;20539;-57
2022/08/13 10:50:14;;;;;;;9.73;9.00;;;26.70;1.00;;;;;;5089165;28;20924;-57
2022/08/13 10:52:41;;;;;;;9.83;9.00;;;26.50;1.00;;;;;;5092329;28;20504;-56
2022/08/13 10:55:09;;;;;;;10.43;9.30;;;26.10;1.00;;;;;;5092040;28;20466;-56
2022/08/13 10:57:45;;;;;;;9.50;8.80;;;25.70;1.00;;;;;;5093086;28;20440;-56
2022/08/13 11:00:17;;;;;;;10.13;9.27;;;25.50;1.00;;;;;;5091129;28;20610;-56
2022/08/13 11:02:43;;;;;;;9.37;8.67;;;25.40;1.00;;;;;;5092835;28;20440;-56
2022/08/13 11:05:11;;;;;;;10.00;9.20;;;25.40;1.00;;;;;;5092022;28;20452;-56
2022/08/13 11:07:38;;;;;;;10.47;9.57;;;25.60;1.00;;;;;;5091638;28;20579;-57
2022/08/13 11:10:07;;;;;;;9.80;8.80;;;25.90;1.00;;;;;;5092992;28;20447;-57
2022/08/13 11:12:33;;;;;;;9.47;8.77;;;26.10;1.00;;;;;;5089643;28;20503;-56
2022/08/13 11:15:00;;;;;;;10.20;9.30;;;26.20;1.00;;;;;;5091533;28;20557;-57
2022/08/13 11:17:26;;;;;;;12.53;11.50;;;26.10;1.00;;;;;;5091794;28;20455;-57
2022/08/13 11:19:52;;;;;;;10.77;9.70;;;26.00;1.00;;;;;;5092241;28;20449;-56
2022/08/13 11:22:23;;;;;;;10.80;9.77;;;25.90;1.00;;;;;;5091428;28;20179;-57
2022/08/13 11:24:49;;;;;;;10.80;9.87;;;25.80;1.00;;;;;;5092459;28;22490;-57
2022/08/13 11:27:15;;;;;;;11.37;10.40;;;25.90;1.00;;;;;;5090912;28;20444;-56
2022/08/13 11:29:41;;;;;;;12.13;11.07;;;26.00;1.00;;;;;;5091999;28;20555;-56
2022/08/13 11:32:08;;;;;;;10.13;9.33;;;26.00;1.00;;;;;;5091576;28;20464;-56
2022/08/13 11:34:33;;;;;;;10.77;9.70;;;26.10;1.00;;;;;;5091933;28;20305;-56
2022/08/13 11:37:00;;;;;;;10.03;9.13;;;26.00;1.00;;;;;;5087106;28;20560;-56
2022/08/13 11:39:26;;;;;;;13.93;11.23;;;25.80;1.00;;;;;;5090853;28;20942;-55
2022/08/13 11:41:51;;;;;;;13.13;11.90;;;25.70;1.00;;;;;;5090556;28;20451;-56
2022/08/13 11:44:17;;;;;;;12.90;11.17;;;25.70;1.00;;;;;;5090949;28;20677;-56
2022/08/13 11:46:43;;;;;;;11.83;10.83;;;25.70;1.00;;;;;;5091658;28;20194;-56
2022/08/13 11:49:10;;;;;;;11.80;10.90;;;25.80;1.00;;;;;;5091674;28;20445;-55
2022/08/13 11:51:37;;;;;;;12.60;11.50;;;25.80;1.00;;;;;;5092130;28;20636;-56
2022/08/13 11:54:02;;;;;;;12.63;11.63;;;25.60;1.00;;;;;;5090488;28;20976;-56
2022/08/13 11:56:28;;;;;;;12.27;11.27;;;25.50;1.00;;;;;;5091781;28;20444;-55
2022/08/13 11:58:55;;;;;;;12.83;11.80;;;25.50;1.00;;;;;;5069983;28;20270;-57
2022/08/13 12:01:21;;;;;;;13.90;12.80;;;25.40;1.00;;;;;;5090825;28;20189;-55
2022/08/13 12:03:47;;;;;;;13.60;12.40;;;25.30;1.00;;;;;;5090530;28;20761;-55
2022/08/13 12:06:14;;;;;;;14.03;12.93;;;25.20;1.00;;;;;;5090819;28;20432;-55
2022/08/13 12:08:39;;;;;;;12.97;11.97;;;25.20;1.00;;;;;;5091267;28;20235;-55
2022/08/13 12:11:08;;;;;;;13.33;12.27;;;25.30;1.00;;;;;;5091632;28;20432;-55
2022/08/13 12:13:33;;;;;;;13.63;12.63;;;25.40;1.00;;;;;;5090754;28;20194;-54
2022/08/13 12:15:59;;;;;;;13.27;12.13;;;25.60;1.00;;;;;;5088832;28;20803;-54
2022/08/13 12:18:25;;;;;;;12.93;11.93;;;25.70;1.00;;;;;;5089821;28;20251;-56
2022/08/13 12:20:50;;;;;;;12.27;11.40;;;25.80;1.00;;;;;;5090049;28;20269;-55
2022/08/13 12:23:16;;;;;;;12.97;11.87;;;25.80;1.00;;;;;;5072350;28;20198;-56
2022/08/13 12:25:42;;;;;;;12.03;11.03;;;25.80;1.00;;;;;;5090457;28;20190;-56
2022/08/13 12:28:10;;;;;;;13.07;11.97;;;25.90;1.00;;;;;;5091376;28;20186;-54
2022/08/13 12:30:36;;;;;;;10.50;9.60;;;25.90;1.00;;;;;;5090143;28;20632;-55
2022/08/13 12:33:03;;;;;;;11.70;10.60;;;25.80;1.00;;;;;;5089692;28;20463;-54
2022/08/13 12:35:29;;;;;;;11.70;10.60;;;25.60;1.00;;;;;;5089691;28;20527;-55
2022/08/13 12:37:54;;;;;;;12.23;11.20;;;25.50;1.00;;;;;;5089645;28;20557;-55
2022/08/13 12:40:20;;;;;;;12.33;11.17;;;25.40;1.00;;;;;;5088908;28;20183;-54
2022/08/13 12:42:45;;;;;;;13.10;11.40;;;25.50;1.00;;;;;;5090028;28;20327;-56
2022/08/13 12:45:13;;;;;;;11.97;10.97;;;25.50;1.00;;;;;;5090582;28;20194;-55
2022/08/13 12:47:40;;;;;;;11.60;10.70;;;25.40;1.00;;;;;;5089694;28;20667;-55
2022/08/13 12:50:06;;;;;;;12.27;11.37;;;25.40;1.00;;;;;;5090803;28;21040;-54
2022/08/13 12:52:32;;;;;;;12.63;11.43;;;25.40;1.00;;;;;;5089587;28;20449;-55
2022/08/13 12:54:57;;;;;;;14.53;11.67;;;25.40;1.00;;;;;;5090543;28;20491;-54
2022/08/13 12:57:23;;;;;;;11.30;10.40;;;25.60;1.00;;;;;;5089763;28;20262;-55
2022/08/13 12:59:49;;;;;;;12.80;11.70;;;25.60;1.00;;;;;;5085508;28;21211;-55
2022/08/13 13:02:14;;;;;;;11.43;10.40;;;25.70;1.00;;;;;;5089035;28;20186;-55
2022/08/13 13:04:43;;;;;;;11.97;10.97;;;26.00;1.00;;;;;;5089632;28;20187;-56
2022/08/13 13:07:09;;;;;;;11.57;10.57;;;26.30;1.00;;;;;;5088107;28;20539;-54
2022/08/13 13:09:35;;;;;;;12.30;11.10;;;26.40;1.00;;;;;;5071713;28;20443;-56
2022/08/13 13:12:01;;;;;;;11.60;10.70;;;26.50;1.00;;;;;;5089881;28;20760;-53
2022/08/13 13:14:27;;;;;;;11.03;10.20;;;26.50;1.00;;;;;;5089498;28;20210;-54
2022/08/13 13:16:52;;;;;;;10.70;9.80;;;26.60;1.00;;;;;;5071526;28;20193;-55